Terminal Aerodrome Forecast
Issued by NWS

Home | Current Version | Previous Version | Text Only | Print | Product List | Glossary Off
Versions: 1 2 3 4 5 6 7 8 9 10 11 12

000
FTUS43 KFGF 301700
TAFBJI
TAF
KBJI 301720Z 3018/0118 14010KT P6SM FEW250
     FM302000 17016KT P6SM SCT250
     FM010600 23005KT P6SM -SHRA BKN040
     FM011300 27005KT P6SM SCT050=

USA.gov is the U.S. government's official web portal to all federal, state and local government web resources and services.